Time;durP1;ratioP1;P1;durP2;ratioP2;P2;SDS_P1;SDS_P2;PMS_P1;PMS_P2;Temp;Humidity;BMP_temperature;BMP_pressure;BME280_temperature;BME280_humidity;BME280_pressure;Samples;Min_cycle;Max_cycle;Signal;HPM_P1;HPM_P2
2021/07/15 06:14:51;;;;;;;14.90;13.60;;;;;;;31.19;51.00;97927.71;1696513;84;21517;-68
2021/07/15 06:17:19;;;;;;;14.93;13.22;;;;;;;31.24;50.06;97914.78;1699490;83;21033;-68
2021/07/15 06:19:46;;;;;;;15.88;14.35;;;;;;;31.29;49.07;97923.17;1699291;83;21118;-68
2021/07/15 06:22:12;;;;;;;17.40;14.15;;;;;;;31.27;49.21;97919.83;1699578;84;20946;-68
2021/07/15 06:24:39;;;;;;;17.80;14.30;;;;;;;31.31;49.23;97922.40;1699730;84;20989;-70
2021/07/15 06:27:05;;;;;;;16.32;14.90;;;;;;;31.40;49.34;97925.58;1699391;84;21420;-69
2021/07/15 06:29:32;;;;;;;15.10;13.72;;;;;;;31.47;48.79;97921.23;1699507;84;20938;-69
2021/07/15 06:31:58;;;;;;;14.90;13.45;;;;;;;31.61;48.46;97917.59;1699055;84;21118;-69
2021/07/15 06:34:26;;;;;;;15.63;12.45;;;;;;;31.76;48.07;97919.77;1699325;84;21336;-69
2021/07/15 06:36:53;;;;;;;20.17;13.03;;;;;;;31.91;47.68;97922.73;1699325;84;21008;-70
2021/07/15 06:39:19;;;;;;;13.22;12.23;;;;;;;32.05;47.70;97919.05;1699231;84;21031;-69
2021/07/15 06:41:46;;;;;;;13.80;12.60;;;;;;;32.19;47.02;97923.70;1699814;84;20942;-71
2021/07/15 06:44:13;;;;;;;13.28;12.20;;;;;;;32.31;46.99;97924.42;1699480;84;21779;-70
2021/07/15 06:46:40;;;;;;;12.30;11.18;;;;;;;32.40;45.57;97924.25;1699902;84;21506;-72
2021/07/15 06:49:08;;;;;;;11.88;10.98;;;;;;;32.47;44.08;97921.83;1699372;83;21395;-69
2021/07/15 06:51:34;;;;;;;11.43;10.60;;;;;;;32.52;43.31;97920.48;1699305;84;21414;-70
2021/07/15 06:54:01;;;;;;;15.13;12.25;;;;;;;32.54;43.17;97923.83;1699522;84;20989;-73
2021/07/15 06:56:27;;;;;;;11.95;11.05;;;;;;;32.56;43.46;97925.80;1699262;84;21110;-69
2021/07/15 06:58:54;;;;;;;12.07;10.80;;;;;;;32.61;43.22;97925.88;1699240;84;20883;-69
2021/07/15 07:01:21;;;;;;;13.05;11.55;;;;;;;32.67;43.46;97928.17;1699157;84;20934;-69
2021/07/15 07:03:47;;;;;;;11.97;11.05;;;;;;;32.78;43.80;97926.64;1699618;84;20934;-71
2021/07/15 07:06:13;;;;;;;15.90;11.48;;;;;;;32.92;43.47;97924.81;1699383;84;21399;-69
2021/07/15 07:08:41;;;;;;;12.18;11.20;;;;;;;33.02;43.32;97920.75;1699559;83;20954;-71
2021/07/15 07:11:08;;;;;;;13.05;12.05;;;;;;;33.15;42.81;97925.03;1699472;83;20882;-69
2021/07/15 07:13:34;;;;;;;12.70;11.35;;;;;;;33.19;43.06;97929.55;1698936;84;20950;-69
2021/07/15 07:16:04;;;;;;;12.53;11.53;;;;;;;33.24;43.12;97926.83;1698858;84;21410;-72
2021/07/15 07:18:32;;;;;;;12.98;11.33;;;;;;;33.40;42.13;97919.44;1699152;84;21005;-71
2021/07/15 07:21:00;;;;;;;14.15;11.68;;;;;;;33.40;42.13;97919.44;1699358;84;21074;-71
2021/07/15 07:23:26;;;;;;;11.93;10.75;;;;;;;33.60;41.15;97906.19;1698692;84;20942;-70
2021/07/15 07:25:53;;;;;;;17.07;14.05;;;;;;;33.60;41.15;97906.19;1699305;84;20926;-72
2021/07/15 07:28:19;;;;;;;13.05;11.83;;;;;;;33.70;40.37;97910.45;1698924;84;20981;-70
2021/07/15 07:30:46;;;;;;;13.58;12.20;;;;;;;33.70;40.37;97910.45;1699417;84;21355;-69
2021/07/15 07:33:12;;;;;;;14.25;12.88;;;;;;;33.73;40.90;97904.37;1699047;84;21923;-69
2021/07/15 07:35:41;;;;;;;13.22;11.97;;;;;;;33.85;41.46;97908.33;1699006;84;20945;-70
2021/07/15 07:38:10;;;;;;;14.63;11.68;;;;;;;34.06;41.67;97900.94;1698990;84;20922;-69
2021/07/15 07:40:37;;;;;;;12.80;11.68;;;;;;;34.29;41.13;97903.83;1699147;84;20899;-68
2021/07/15 07:43:04;;;;;;;12.33;11.08;;;;;;;34.51;40.05;97907.80;1699121;84;20949;-69
2021/07/15 07:45:32;;;;;;;13.90;12.58;;;;;;;34.69;39.91;97898.10;1699040;84;21142;-73
2021/07/15 07:48:00;;;;;;;13.83;12.05;;;;;;;34.87;39.55;97893.14;1699144;84;20969;-73
2021/07/15 07:50:27;;;;;;;27.40;12.60;;;;;;;35.02;39.12;97898.73;1698969;84;21399;-73
2021/07/15 07:52:57;;;;;;;10.88;10.18;;;;;;;35.15;39.01;97902.92;1698654;84;20919;-74
2021/07/15 07:55:24;;;;;;;13.15;12.03;;;;;;;35.23;38.46;97898.17;1699274;84;21339;-76
2021/07/15 07:57:51;;;;;;;12.80;11.68;;;;;;;35.30;38.02;97901.27;1698729;84;21515;-76
2021/07/15 08:00:19;;;;;;;12.75;11.65;;;;;;;35.32;38.14;97896.23;1699194;84;20895;-74
2021/07/15 08:02:48;;;;;;;12.63;11.43;;;;;;;35.32;38.46;97893.45;1698901;84;20891;-74
2021/07/15 08:05:18;;;;;;;13.50;12.50;;;;;;;35.37;37.99;97896.26;1698983;84;20879;-73
2021/07/15 08:07:44;;;;;;;12.03;10.93;;;;;;;35.40;37.64;97898.49;1698860;84;21319;-77
2021/07/15 08:10:11;;;;;;;16.10;11.80;;;;;;;35.39;37.67;97897.63;1699225;84;21107;-74
2021/07/15 08:12:37;;;;;;;12.82;11.63;;;;;;;35.39;37.96;97900.99;1698926;84;20930;-74
2021/07/15 08:15:06;;;;;;;12.75;11.60;;;;;;;35.41;38.01;97900.14;1699736;84;20938;-72
2021/07/15 08:17:33;;;;;;;13.80;12.65;;;;;;;35.49;38.41;97899.57;1701961;84;21471;-73
2021/07/15 08:20:03;;;;;;;15.05;13.10;;;;;;;35.55;38.42;97894.26;1701728;84;20942;-72
2021/07/15 08:22:29;;;;;;;14.83;11.73;;;;;;;35.62;37.83;97896.21;1701924;84;21522;-73
2021/07/15 08:24:57;;;;;;;14.05;12.50;;;;;;;35.66;37.73;97899.84;1701582;84;20855;-72
2021/07/15 08:27:23;;;;;;;13.35;12.25;;;;;;;35.68;37.84;97898.98;1701228;84;20993;-73
2021/07/15 08:29:49;;;;;;;14.50;12.30;;;;;;;35.69;37.93;97898.70;1701982;84;20945;-71
2021/07/15 08:32:16;;;;;;;13.90;12.58;;;;;;;35.75;37.75;97898.15;1701345;84;20954;-72
2021/07/15 08:34:42;;;;;;;14.30;12.90;;;;;;;35.77;37.88;97907.10;1701571;84;21447;-74
2021/07/15 08:37:08;;;;;;;14.80;13.65;;;;;;;35.79;37.84;97896.47;1701477;84;20926;-73
2021/07/15 08:39:35;;;;;;;14.43;13.00;;;;;;;35.82;38.24;97897.30;1701597;84;20874;-73
2021/07/15 08:42:02;;;;;;;13.30;12.18;;;;;;;35.86;37.99;97898.42;1702273;84;21423;-73
2021/07/15 08:44:28;;;;;;;13.72;11.83;;;;;;;35.88;38.10;97900.36;1702023;84;20851;-73
2021/07/15 08:46:57;;;;;;;13.95;12.80;;;;;;;35.87;37.64;97905.70;1701899;84;21135;-72
2021/07/15 08:49:25;;;;;;;11.95;10.98;;;;;;;35.81;38.24;97906.25;1701872;84;20871;-73
2021/07/15 08:51:51;;;;;;;13.10;11.83;;;;;;;35.79;38.08;97909.05;1701927;84;20975;-72
2021/07/15 08:54:18;;;;;;;14.87;13.55;;;;;;;35.69;37.83;97905.69;1702031;84;20902;-76
2021/07/15 08:56:47;;;;;;;13.40;12.25;;;;;;;35.63;38.56;97910.47;1700923;84;20930;-73
2021/07/15 08:59:17;;;;;;;12.47;11.28;;;;;;;35.66;38.46;97906.82;1700950;84;21543;-73
2021/07/15 09:01:50;;;;;;;13.03;11.78;;;;;;;35.68;38.65;97908.20;1697557;84;20891;-75
2021/07/15 09:04:20;;;;;;;11.03;10.15;;;;;;;35.69;38.46;97907.66;1697457;83;21475;-74
2021/07/15 09:06:47;;;;;;;12.45;11.33;;;;;;;35.66;38.08;97906.82;1697513;84;20907;-75
2021/07/15 09:09:13;;;;;;;13.48;11.65;;;;;;;35.60;38.17;97911.03;1701610;84;21392;-75
2021/07/15 09:11:42;;;;;;;11.28;10.28;;;;;;;35.60;38.51;97906.84;1701707;84;21486;-72
2021/07/15 09:14:21;;;;;;;17.25;11.30;;;;;;;35.68;38.43;97914.34;1701362;83;21525;-75
2021/07/15 09:16:54;;;;;;;11.65;10.48;;;;;;;35.73;37.42;97908.20;1683059;84;20899;-74
2021/07/15 09:19:25;;;;;;;11.68;10.55;;;;;;;35.79;37.50;97906.25;1700437;84;20926;-76
2021/07/15 09:21:56;;;;;;;11.55;10.38;;;;;;;35.83;37.72;97905.97;1699013;84;20926;-77
2021/07/15 09:24:38;;;;;;;11.40;10.20;;;;;;;35.88;37.54;97907.92;1660233;84;20923;-76
2021/07/15 09:27:24;;;;;;;10.75;9.98;;;;;;;35.93;37.16;97903.13;1701129;83;21352;-76
2021/07/15 09:30:06;;;;;;;;;;;;;;;35.95;36.81;97909.84;1703764;84;21021;-75
2021/07/15 09:32:37;;;;;;;11.45;9.80;;;;;;;35.95;37.16;97909.30;1701913;83;20118;-76
2021/07/15 09:35:06;;;;;;;11.08;10.08;;;;;;;35.89;36.86;97916.02;1668787;84;20977;-74
2021/07/15 09:37:35;;;;;;;11.25;10.45;;;;;;;35.85;37.43;97913.50;1701693;84;20922;-74
2021/07/15 09:40:03;;;;;;;10.58;9.68;;;;;;;35.79;37.37;97904.85;1701924;84;20989;-76
2021/07/15 09:42:31;;;;;;;12.25;10.10;;;;;;;35.75;37.59;97907.92;1701736;84;21412;-75
2021/07/15 09:44:58;;;;;;;15.30;10.80;;;;;;;35.75;37.33;97912.11;1701408;84;21356;-74
2021/07/15 09:47:39;;;;;;;10.35;9.55;;;;;;;35.78;37.24;97912.98;1701621;84;20894;-74
2021/07/15 09:50:23;;;;;;;11.20;10.40;;;;;;;35.77;37.07;97911.30;1701948;84;21380;-73
2021/07/15 09:52:51;;;;;;;11.88;9.98;;;;;;;35.75;36.83;97914.37;1701299;84;21306;-76
2021/07/15 09:55:26;;;;;;;12.35;10.30;;;;;;;35.70;36.70;97919.94;1700423;84;20931;-75
2021/07/15 09:58:05;;;;;;;13.00;11.30;;;;;;;35.68;37.10;97915.17;1701634;84;20902;-75
2021/07/15 10:00:46;;;;;;;11.90;10.93;;;;;;;35.69;37.65;97917.43;1701124;84;20946;-77
2021/07/15 10:03:15;;;;;;;11.25;10.35;;;;;;;35.71;38.18;97910.99;1701839;84;21524;-77
2021/07/15 10:05:52;;;;;;;10.78;9.85;;;;;;;35.69;38.52;97915.47;1701570;84;20890;-75
2021/07/15 10:08:27;;;;;;;10.90;10.10;;;;;;;35.68;37.93;97910.16;1702117;84;20965;-76
2021/07/15 10:11:16;;;;;;;11.90;10.80;;;;;;;35.68;38.28;97911.56;1701680;84;21343;-76
2021/07/15 10:13:43;;;;;;;12.78;11.68;;;;;;;35.64;38.02;97900.95;1684887;84;20930;-74
2021/07/15 10:16:11;;;;;;;12.18;11.10;;;;;;;35.67;38.18;97905.72;1712105;83;20937;-74
2021/07/15 10:18:49;;;;;;;15.98;11.55;;;;;;;35.66;38.01;97906.25;1714311;83;20929;-75
2021/07/15 10:21:27;;;;;;;11.48;10.58;;;;;;;35.64;37.96;97906.53;1714453;83;20897;-76
2021/07/15 10:23:57;;;;;;;12.03;11.10;;;;;;;35.63;37.79;97900.69;1714176;83;20941;-75
2021/07/15 10:26:23;;;;;;;12.60;11.53;;;;;;;35.57;37.87;97901.81;1714696;83;20988;-76
2021/07/15 10:28:53;;;;;;;10.78;9.95;;;;;;;35.50;37.92;97906.02;1713800;83;21418;-76
2021/07/15 10:31:21;;;;;;;11.95;10.95;;;;;;;35.40;38.05;97906.86;1714721;83;21410;-75
2021/07/15 10:33:49;;;;;;;11.25;10.25;;;;;;;35.31;37.83;97905.75;1714560;83;20928;-76
2021/07/15 10:36:15;;;;;;;12.23;11.33;;;;;;;35.22;38.02;97903.46;1712521;83;21402;-77
2021/07/15 10:38:46;;;;;;;13.32;12.05;;;;;;;35.18;37.73;97902.36;1714761;83;21362;-77
2021/07/15 10:41:12;;;;;;;13.13;12.03;;;;;;;35.16;37.72;97898.17;1714488;83;21189;-80
2021/07/15 10:43:40;;;;;;;14.98;11.57;;;;;;;35.14;38.22;97903.20;1714414;83;20977;-80
2021/07/15 10:46:06;;;;;;;12.28;11.08;;;;;;;35.13;38.21;97896.80;1713354;83;20894;-77
2021/07/15 10:48:37;;;;;;;12.25;10.93;;;;;;;35.14;37.71;97892.04;1714527;83;21371;-75
2021/07/15 10:51:05;;;;;;;11.50;10.50;;;;;;;35.17;37.77;97889.52;1713813;83;20890;-76
2021/07/15 10:53:35;;;;;;;12.05;10.72;;;;;;;35.16;38.26;97883.68;1714872;83;22210;-76
2021/07/15 10:56:03;;;;;;;11.73;10.63;;;;;;;35.14;38.46;97883.09;1714028;83;20918;-76
2021/07/15 10:58:52;;;;;;;12.55;11.48;;;;;;;35.07;38.14;97881.16;1714326;83;20949;-74
2021/07/15 11:01:40;;;;;;;11.55;10.45;;;;;;;34.99;37.91;97885.34;1714735;83;20988;-76
2021/07/15 11:04:16;;;;;;;11.88;10.88;;;;;;;34.87;37.83;97882.81;1714879;83;20886;-75
2021/07/15 11:06:47;;;;;;;11.70;10.58;;;;;;;34.74;37.91;97880.55;1713787;83;22175;-76
2021/07/15 11:09:29;;;;;;;11.93;10.93;;;;;;;34.59;37.67;97881.90;1713194;83;20878;-75
2021/07/15 11:11:57;;;;;;;13.22;11.85;;;;;;;34.45;38.53;97881.05;1714401;83;20922;-76
2021/07/15 11:14:41;;;;;;;12.13;11.03;;;;;;;34.31;39.24;97885.44;1715043;83;21359;-77
2021/07/15 11:17:30;;;;;;;11.73;10.72;;;;;;;34.21;39.34;97880.64;1721613;81;20893;-75
2021/07/15 11:20:15;;;;;;;11.15;10.15;;;;;;;34.16;39.61;97878.67;1721396;83;21979;-75
2021/07/15 11:22:57;;;;;;;11.80;10.65;;;;;;;34.11;38.83;97874.48;1698890;83;20933;-77
2021/07/15 11:25:35;;;;;;;11.20;10.20;;;;;;;34.08;39.38;97879.20;1721291;83;20905;-75
2021/07/15 11:28:22;;;;;;;12.15;10.85;;;;;;;34.07;39.62;97877.52;1721591;83;21426;-75
2021/07/15 11:30:52;;;;;;;11.25;10.43;;;;;;;34.06;39.81;97873.07;1720868;83;21405;-75
2021/07/15 11:33:30;;;;;;;12.82;10.45;;;;;;;34.16;39.44;97868.91;1721447;83;21086;-75
2021/07/15 11:36:08;;;;;;;12.33;11.15;;;;;;;34.25;38.89;97866.48;1721697;83;20929;-76
2021/07/15 11:38:44;;;;;;;10.95;10.15;;;;;;;34.30;38.91;97856.73;1721911;83;21355;-75
2021/07/15 11:41:14;;;;;;;11.57;10.75;;;;;;;34.37;38.79;97853.15;1721124;83;20941;-74
2021/07/15 11:43:55;;;;;;;13.48;12.47;;;;;;;34.45;38.99;97850.38;1721498;83;21516;-76
2021/07/15 11:46:35;;;;;;;12.85;11.50;;;;;;;34.54;38.53;97849.27;1720542;83;20964;-75
2021/07/15 11:49:18;;;;;;;12.13;11.15;;;;;;;34.55;39.14;97839.23;1721710;83;21465;-74
2021/07/15 11:51:58;;;;;;;11.03;10.03;;;;;;;34.61;37.48;97840.09;1721133;83;20854;-75
2021/07/15 11:54:35;;;;;;;10.58;9.78;;;;;;;34.61;37.48;97840.09;1721579;83;20905;-75
2021/07/15 11:57:16;;;;;;;11.20;10.20;;;;;;;34.62;37.75;97836.73;1719922;83;20941;-75
2021/07/15 12:00:07;;;;;;;12.30;11.28;;;;;;;34.63;37.47;97846.22;1718718;82;21575;-78
2021/07/15 12:02:46;;;;;;;11.85;11.05;;;;;;;34.72;38.14;97850.14;1720957;83;20992;-77
2021/07/15 12:05:22;;;;;;;10.78;9.90;;;;;;;34.72;38.14;97850.14;1721715;83;20914;-76
2021/07/15 12:08:12;;;;;;;12.15;11.05;;;;;;;34.79;37.34;97847.10;1721474;83;21434;-76
2021/07/15 12:10:44;;;;;;;11.22;10.03;;;;;;;34.82;36.77;97838.18;1721536;83;20926;-75
2021/07/15 12:13:15;;;;;;;12.37;11.38;;;;;;;34.80;36.80;97833.98;1720563;83;20930;-77
2021/07/15 12:15:45;;;;;;;11.20;10.30;;;;;;;34.79;36.70;97837.91;1704300;82;20981;-75
2021/07/15 12:18:19;;;;;;;11.20;10.25;;;;;;;34.82;36.83;97834.00;1682278;85;20961;-77
2021/07/15 12:20:55;;;;;;;12.43;10.65;;;;;;;34.87;36.65;97831.20;1682544;84;20902;-77
2021/07/15 12:23:31;;;;;;;12.30;10.20;;;;;;;34.93;36.76;97834.27;1683090;84;20938;-77
2021/07/15 12:25:57;;;;;;;11.08;10.28;;;;;;;35.00;36.42;97824.79;1684539;84;20893;-76
2021/07/15 12:28:26;;;;;;;11.50;10.60;;;;;;;35.06;36.37;97824.50;1686346;83;20968;-77
2021/07/15 12:30:57;;;;;;;11.85;10.80;;;;;;;35.11;36.71;97818.08;1683039;84;20942;-79
2021/07/15 12:33:43;;;;;;;12.03;10.93;;;;;;;35.19;36.64;97811.09;1689548;84;21426;-74
2021/07/15 12:36:21;;;;;;;12.75;11.45;;;;;;;35.25;36.68;97822.00;1693562;83;21497;-75
2021/07/15 12:39:07;;;;;;;15.05;12.03;;;;;;;35.35;36.08;97818.91;1685534;84;21360;-77
2021/07/15 12:41:40;;;;;;;12.98;10.75;;;;;;;35.35;36.08;97818.91;1687582;84;21344;-77
2021/07/15 12:44:12;;;;;;;11.73;10.38;;;;;;;35.36;36.11;97820.59;1682816;84;20899;-77
2021/07/15 12:46:44;;;;;;;15.60;10.30;;;;;;;35.35;36.04;97817.52;1683729;84;21017;-78
2021/07/15 12:49:14;;;;;;;20.85;11.68;;;;;;;35.31;35.78;97809.45;1684845;84;20989;-78
2021/07/15 12:51:46;;;;;;;11.12;10.32;;;;;;;35.22;35.67;97805.77;1691885;83;21475;-77
2021/07/15 12:54:33;;;;;;;14.25;11.00;;;;;;;35.10;35.90;97796.89;1683518;84;21014;-79
2021/07/15 12:57:07;;;;;;;13.83;9.85;;;;;;;34.97;36.19;97800.23;1683665;84;20918;-80
2021/07/15 12:59:35;;;;;;;11.40;10.50;;;;;;;34.78;36.37;97802.19;1686090;84;20909;-80
2021/07/15 13:02:03;;;;;;;16.45;10.68;;;;;;;34.63;36.61;97803.56;1690990;84;20946;-78
2021/07/15 13:04:34;;;;;;;14.70;10.13;;;;;;;34.49;36.93;97807.45;1681569;85;22348;-78
2021/07/15 13:07:09;;;;;;;21.02;10.08;;;;;;;34.35;37.10;97798.78;1683228;84;20969;-72
2021/07/15 13:09:51;;;;;;;11.18;10.18;;;;;;;34.22;37.54;97804.30;1691810;84;20957;-72
2021/07/15 13:15:11;;;;;;;13.08;11.00;;;;;;;33.94;38.23;97820.36;1687476;83;20918;-73
2021/07/15 13:17:47;;;;;;;10.72;9.93;;;;;;;33.78;38.78;97826.42;1712183;83;20918;-73
2021/07/15 13:20:20;;;;;;;11.63;10.55;;;;;;;33.64;39.96;97827.99;1715351;83;20977;-72
2021/07/15 13:22:53;;;;;;;11.65;9.90;;;;;;;33.51;40.90;97846.02;1710703;83;21367;-73
2021/07/15 13:25:25;;;;;;;11.73;9.95;;;;;;;33.30;41.66;97843.64;1704615;83;20854;-70
2021/07/15 13:28:06;;;;;;;12.20;11.20;;;;;;;33.12;42.02;97862.41;1704480;84;20902;-74
2021/07/15 13:30:37;;;;;;;12.68;11.63;;;;;;;32.98;42.23;97870.91;1704659;84;21186;-72
2021/07/15 13:33:23;;;;;;;12.53;11.33;;;;;;;32.84;42.32;97867.73;1704656;84;20994;-72
2021/07/15 13:35:51;;;;;;;11.83;10.75;;;;;;;32.72;42.58;97856.80;1704363;83;20890;-71
2021/07/15 13:38:18;;;;;;;10.72;9.83;;;;;;;32.62;43.32;97851.09;1704420;84;20871;-72
2021/07/15 13:40:45;;;;;;;11.93;10.50;;;;;;;32.52;43.89;97845.44;1704969;83;20957;-70
2021/07/15 13:43:17;;;;;;;15.15;9.80;;;;;;;32.38;44.27;97855.57;1704643;84;21091;-72
2021/07/15 13:45:47;;;;;;;11.12;10.05;;;;;;;32.24;44.48;97877.92;1685969;84;21402;-72
2021/07/15 13:48:17;;;;;;;11.30;10.30;;;;;;;32.08;44.99;97894.09;1704658;83;20942;-73
2021/07/15 13:50:47;;;;;;;11.05;10.23;;;;;;;31.94;45.21;97897.23;1704605;84;20846;-72
2021/07/15 13:53:16;;;;;;;11.40;9.93;;;;;;;31.83;45.50;97885.18;1705049;84;20915;-72
2021/07/15 13:55:46;;;;;;;11.12;10.03;;;;;;;31.73;45.95;97871.14;1704575;84;21134;-72
2021/07/15 13:58:19;;;;;;;9.45;8.75;;;;;;;31.63;46.35;97882.09;1704501;83;20942;-69
2021/07/15 14:00:52;;;;;;;52.25;12.88;;;;;;;31.51;46.42;97915.48;1704875;84;21351;-78
2021/07/15 14:03:19;;;;;;;24.05;9.43;;;;;;;31.35;44.80;97924.94;1704755;83;20914;-78
2021/07/15 14:05:49;;;;;;;25.57;9.18;;;;;;;31.03;42.94;97930.25;1704658;83;20922;-77
2021/07/15 14:08:16;;;;;;;21.48;8.30;;;;;;;30.60;43.16;97920.02;1704508;83;21554;-77
2021/07/15 14:10:46;;;;;;;20.35;7.22;;;;;;;30.19;43.18;97943.23;1704566;83;20926;-75
2021/07/15 14:13:13;;;;;;;14.38;7.70;;;;;;;29.79;43.63;97955.94;1704555;83;20895;-71
2021/07/15 14:15:44;;;;;;;87.33;10.72;;;;;;;29.50;44.70;97984.84;1702414;83;21756;-72
2021/07/15 14:18:18;;;;;;;29.18;7.40;;;;;;;29.15;45.04;98013.25;1689259;85;20961;-73
2021/07/15 14:20:53;;;;;;;12.58;6.70;;;;;;;28.75;46.37;98023.47;1688875;85;21120;-72
2021/07/15 14:23:23;;;;;;;17.52;9.03;;;;;;;28.38;48.39;97998.64;1688450;84;20906;-72
2021/07/15 14:25:56;;;;;;;14.43;8.05;;;;;;;28.01;50.03;97962.74;1689351;84;20910;-71
2021/07/15 14:28:23;;;;;;;10.18;8.23;;;;;;;27.67;50.84;97970.52;1689212;85;20954;-70
2021/07/15 14:30:51;;;;;;;10.65;8.80;;;;;;;27.36;51.89;97979.16;1689439;84;20910;-72
2021/07/15 14:33:19;;;;;;;14.53;8.83;;;;;;;27.10;52.65;97975.20;1689276;85;21424;-73
2021/07/15 14:35:46;;;;;;;11.53;7.90;;;;;;;26.77;53.64;97946.83;1689632;85;20902;-71
2021/07/15 14:38:17;;;;;;;25.02;9.58;;;;;;;26.46;54.44;97926.95;1668162;85;20918;-71
2021/07/15 14:40:46;;;;;;;33.08;9.35;;;;;;;26.13;55.74;97905.94;1689209;85;20934;-70
2021/07/15 14:43:14;;;;;;;26.05;9.35;;;;;;;25.72;57.33;97883.74;1689408;84;20953;-68
2021/07/15 14:45:43;;;;;;;12.00;8.30;;;;;;;25.49;58.29;97891.92;1689269;84;20925;-69
2021/07/15 14:48:10;;;;;;;18.00;9.10;;;;;;;25.30;58.93;97918.92;1689292;84;21478;-70
2021/07/15 14:50:40;;;;;;;11.20;9.00;;;;;;;25.10;58.95;97943.63;1684848;84;20941;-70
2021/07/15 14:53:09;;;;;;;13.28;9.45;;;;;;;24.90;58.26;97943.09;1673441;84;38056;-68
2021/07/15 14:55:35;;;;;;;11.38;9.90;;;;;;;24.72;57.41;97962.91;1689386;84;20934;-69
2021/07/15 14:58:03;;;;;;;19.05;8.53;;;;;;;24.59;57.23;97946.41;1689235;85;21935;-69
2021/07/15 15:00:32;;;;;;;13.20;9.48;;;;;;;24.52;56.94;97924.41;1689141;84;20997;-69
2021/07/15 15:06:44;;;;;;;11.88;7.60;;;;;;;24.45;59.05;97842.03;1689067;84;20910;-79
2021/07/15 15:12:16;;;;;;;14.63;9.23;;;;;;;24.23;59.61;97851.50;1688522;85;21371;-67
2021/07/15 15:14:44;;;;;;;13.88;8.20;;;;;;;24.19;59.32;97877.14;1688929;85;21060;-67
2021/07/15 15:17:14;;;;;;;23.70;9.55;;;;;;;24.20;58.71;97882.09;1709012;83;20906;-67
2021/07/15 15:19:46;;;;;;;17.02;9.23;;;;;;;24.19;59.57;97866.16;1721243;83;20921;-73
2021/07/15 15:22:18;;;;;;;24.80;10.68;;;;;;;24.18;60.63;97850.20;1720887;83;20926;-73
2021/07/15 15:24:44;;;;;;;21.93;9.68;;;;;;;24.10;62.34;97860.00;1719681;83;21543;-74
2021/07/15 15:27:12;;;;;;;34.58;11.75;;;;;;;23.94;63.18;97863.12;1720563;83;20952;-73
2021/07/15 15:29:42;;;;;;;30.12;13.08;;;;;;;23.68;64.38;97925.50;1720454;83;21016;-79
2021/07/15 15:32:11;;;;;;;20.57;10.15;;;;;;;23.42;66.78;98007.34;1721042;83;20890;-79
2021/07/15 15:34:38;;;;;;;21.30;11.22;;;;;;;23.17;69.24;98047.17;1721684;83;21430;-84
2021/07/15 15:37:04;;;;;;;16.85;10.03;;;;;;;22.97;71.12;98082.03;1721814;83;21529;-82
2021/07/15 15:39:32;;;;;;;16.42;10.90;;;;;;;22.80;71.18;98027.15;1719364;83;21004;-79
2021/07/15 15:42:01;;;;;;;18.50;10.43;;;;;;;22.67;72.31;98011.43;1721590;83;20932;-81
2021/07/15 15:44:28;;;;;;;14.63;10.53;;;;;;;22.58;72.60;98005.73;1721522;83;20942;-80
2021/07/15 15:47:11;;;;;;;19.23;11.25;;;;;;;22.52;73.79;98006.01;1721238;83;20917;-82
2021/07/15 15:49:39;;;;;;;14.87;12.23;;;;;;;22.47;74.91;98004.37;1721927;83;21938;-82
2021/07/15 15:52:08;;;;;;;21.35;11.63;;;;;;;22.44;75.89;97996.55;1721713;83;20936;-80
2021/07/15 15:54:38;;;;;;;19.55;10.90;;;;;;;22.43;76.28;98014.00;1721609;83;20882;-80
2021/07/15 15:57:06;;;;;;;19.40;14.70;;;;;;;22.42;76.75;98020.50;1721283;83;20937;-82
2021/07/15 15:59:34;;;;;;;18.57;13.05;;;;;;;22.35;76.36;98043.15;1721596;83;21405;-81
2021/07/15 16:02:03;;;;;;;15.65;12.80;;;;;;;22.29;76.19;98058.08;1721496;83;21152;-79
2021/07/15 16:04:30;;;;;;;15.50;11.03;;;;;;;22.21;76.89;98079.55;1721465;83;21008;-80
2021/07/15 16:06:57;;;;;;;18.02;10.72;;;;;;;22.19;78.01;98147.27;1721936;83;20905;-81
2021/07/15 16:09:25;;;;;;;18.92;13.13;;;;;;;22.19;77.99;98172.73;1721594;83;20983;-79
2021/07/15 16:11:53;;;;;;;15.58;11.55;;;;;;;22.20;78.64;98198.22;1721012;83;20941;-81
2021/07/15 16:14:25;;;;;;;16.10;11.75;;;;;;;22.23;79.22;98195.11;1721208;83;21044;-83
2021/07/15 16:16:53;;;;;;;14.13;11.48;;;;;;;22.26;79.22;98170.09;1706349;82;21036;-80
2021/07/15 16:19:23;;;;;;;20.40;12.23;;;;;;;22.28;79.56;98127.00;1680934;85;20981;-79
2021/07/15 16:21:53;;;;;;;14.25;10.48;;;;;;;22.30;79.35;98078.45;1683108;84;20954;-78
2021/07/15 16:24:20;;;;;;;10.53;9.45;;;;;;;22.29;79.04;98063.02;1686111;84;20890;-78
